createdAt,value
2022-08-18T00:00:54.796Z,0.00
2022-08-18T00:01:54.193Z,0.00
2022-08-18T00:02:54.492Z,0.00
2022-08-18T00:03:59.654Z,0.00
2022-08-18T00:04:57.270Z,0.00
2022-08-18T00:05:55.224Z,0.00
2022-08-18T00:06:56.384Z,0.00
2022-08-18T00:07:55.755Z,0.00
2022-08-18T00:08:56.096Z,0.00
2022-08-18T00:09:56.395Z,0.00
2022-08-18T00:10:56.714Z,0.00
2022-08-18T00:11:57.071Z,0.00
2022-08-18T00:12:58.851Z,0.00
2022-08-18T00:13:57.491Z,0.00
2022-08-18T00:14:57.808Z,0.00
2022-08-18T00:15:58.116Z,0.00
2022-08-18T00:16:58.432Z,0.00
2022-08-18T00:17:58.740Z,0.00
2022-08-18T00:18:59.071Z,0.00
2022-08-18T00:19:59.381Z,0.00
2022-08-18T00:20:59.693Z,0.00
2022-08-18T00:22:00.029Z,0.00
2022-08-18T00:23:00.333Z,0.00
2022-08-18T00:24:00.653Z,0.00
2022-08-18T00:25:00.972Z,0.00
2022-08-18T00:26:01.284Z,0.00
2022-08-18T00:27:01.603Z,0.00
2022-08-18T00:28:01.942Z,0.00
2022-08-18T00:29:02.294Z,0.00
2022-08-18T00:30:02.487Z,0.00
2022-08-18T00:31:02.806Z,0.00
2022-08-18T00:32:03.114Z,0.00
2022-08-18T00:33:03.436Z,0.00
2022-08-18T00:34:03.756Z,0.00
2022-08-18T00:35:04.076Z,0.00
2022-08-18T00:36:04.395Z,0.00
2022-08-18T00:37:04.733Z,0.00
2022-08-18T00:38:05.029Z,0.00
2022-08-18T00:39:05.359Z,0.00
2022-08-18T00:40:05.740Z,0.00
2022-08-18T00:41:05.956Z,0.00
2022-08-18T00:42:06.261Z,0.00
2022-08-18T00:43:06.569Z,0.00
2022-08-18T00:44:06.902Z,0.00
2022-08-18T00:45:07.218Z,0.00
2022-08-18T00:46:07.523Z,0.00
2022-08-18T00:47:07.842Z,0.00
2022-08-18T00:48:08.154Z,0.00
2022-08-18T00:49:08.483Z,0.00
2022-08-18T00:50:08.792Z,0.00
2022-08-18T00:51:10.082Z,0.00
2022-08-18T00:52:09.316Z,0.00
2022-08-18T00:53:09.633Z,0.00
2022-08-18T00:54:09.965Z,0.00
2022-08-18T00:55:10.267Z,0.00
2022-08-18T00:56:11.459Z,0.00
2022-08-18T00:57:10.835Z,0.00
2022-08-18T00:58:11.157Z,0.00
2022-08-18T00:59:11.540Z,0.00
2022-08-18T01:00:11.783Z,0.00
2022-08-18T01:01:11.959Z,0.00
2022-08-18T01:02:12.290Z,0.00
2022-08-18T01:03:12.621Z,0.00
2022-08-18T01:04:12.934Z,0.00
2022-08-18T01:05:13.232Z,0.00
2022-08-18T01:06:13.571Z,0.00
2022-08-18T01:07:13.851Z,0.00
2022-08-18T01:08:14.178Z,0.00
2022-08-18T01:09:14.491Z,0.00
2022-08-18T01:10:14.823Z,0.00
2022-08-18T01:11:15.154Z,0.00
2022-08-18T01:12:45.279Z,0.00
2022-08-18T01:13:16.761Z,0.00
2022-08-18T01:14:16.026Z,0.00
2022-08-18T01:15:28.473Z,0.00
2022-08-18T01:16:17.615Z,0.00
2022-08-18T01:17:16.865Z,0.00
2022-08-18T01:18:17.185Z,0.00
2022-08-18T01:19:17.522Z,0.00
2022-08-18T01:20:17.818Z,0.00
2022-08-18T01:21:18.127Z,0.00
2022-08-18T01:22:18.451Z,0.00
2022-08-18T01:23:18.778Z,0.00
2022-08-18T01:24:21.856Z,0.00
2022-08-18T01:25:19.348Z,0.00
2022-08-18T01:26:19.668Z,0.00
2022-08-18T01:27:19.971Z,0.00
2022-08-18T01:28:20.330Z,0.00
2022-08-18T01:29:20.516Z,0.00
2022-08-18T01:30:20.832Z,0.00
2022-08-18T01:31:21.133Z,0.00
2022-08-18T01:32:21.455Z,0.00
2022-08-18T01:33:21.789Z,0.00
2022-08-18T01:34:23.074Z,0.00
2022-08-18T01:35:22.324Z,0.00
2022-08-18T01:36:22.654Z,0.00
2022-08-18T01:37:22.976Z,0.00
2022-08-18T01:38:23.293Z,0.00
2022-08-18T01:41:21.122Z,0.00
2022-08-18T01:41:22.759Z,0.00
2022-08-18T01:41:30.489Z,0.00
2022-08-18T01:42:25.549Z,0.00
2022-08-18T01:43:24.796Z,0.00
2022-08-18T01:44:25.120Z,0.00
2022-08-18T01:45:25.437Z,0.00
2022-08-18T01:46:25.792Z,0.00
2022-08-18T01:47:26.087Z,0.00
2022-08-18T01:48:26.421Z,0.00
2022-08-18T01:49:26.730Z,0.00
2022-08-18T01:50:27.038Z,0.00
2022-08-18T01:51:40.279Z,0.00
2022-08-18T01:52:28.651Z,0.00
2022-08-18T01:53:27.912Z,0.00
2022-08-18T01:54:28.230Z,0.00
2022-08-18T01:55:28.566Z,0.00
2022-08-18T01:56:28.882Z,0.00
2022-08-18T01:57:29.195Z,0.00
2022-08-18T01:58:31.718Z,0.00
2022-08-18T01:59:29.772Z,0.00
2022-08-18T02:00:30.077Z,0.00
2022-08-18T02:01:36.200Z,0.00
2022-08-18T02:02:31.675Z,0.00
2022-08-18T02:03:30.948Z,0.00
2022-08-18T02:04:36.011Z,0.00
2022-08-18T02:05:32.539Z,0.00
2022-08-18T02:06:33.590Z,0.00
2022-08-18T02:07:36.375Z,0.00
2022-08-18T02:08:32.383Z,0.00
2022-08-18T02:09:32.626Z,0.00
2022-08-18T02:10:32.881Z,0.00
2022-08-18T02:11:33.186Z,0.00
2022-08-18T02:12:33.500Z,0.00
2022-08-18T02:13:33.829Z,0.00
2022-08-18T02:14:34.168Z,0.00
2022-08-18T02:15:34.471Z,0.00
2022-08-18T02:16:34.790Z,0.00
2022-08-18T02:17:35.118Z,0.00
2022-08-18T02:18:47.702Z,0.00
2022-08-18T02:19:36.748Z,0.00
2022-08-18T02:20:35.973Z,0.00
2022-08-18T02:21:36.283Z,0.00
2022-08-18T02:22:36.601Z,0.00
2022-08-18T02:23:36.923Z,0.00
2022-08-18T02:24:37.235Z,0.00
2022-08-18T02:25:37.552Z,0.00
2022-08-18T02:26:37.855Z,0.00
2022-08-18T02:27:38.167Z,0.00
2022-08-18T02:28:38.507Z,0.00
2022-08-18T02:29:38.808Z,0.00
2022-08-18T02:30:39.120Z,0.00
2022-08-18T02:31:39.421Z,0.00
2022-08-18T02:32:39.733Z,0.00
2022-08-18T02:33:40.052Z,0.00
2022-08-18T02:34:41.331Z,0.00
2022-08-18T02:35:40.578Z,0.00
2022-08-18T02:36:40.886Z,0.00
2022-08-18T02:37:42.059Z,0.00
2022-08-18T02:38:41.504Z,0.00
2022-08-18T02:39:41.783Z,0.00
2022-08-18T02:40:42.083Z,0.00
2022-08-18T02:41:42.396Z,0.00
2022-08-18T02:42:42.709Z,0.00
2022-08-18T02:43:43.036Z,0.00
2022-08-18T02:44:43.349Z,0.00
2022-08-18T02:45:43.657Z,0.00
2022-08-18T02:46:43.982Z,0.00
2022-08-18T02:47:44.484Z,0.00
2022-08-18T02:48:44.669Z,0.00
2022-08-18T02:49:44.839Z,0.00
2022-08-18T02:50:45.157Z,0.00
2022-08-18T02:51:45.459Z,0.00
2022-08-18T02:52:45.811Z,0.00
2022-08-18T02:53:46.135Z,0.00
2022-08-18T02:54:46.460Z,0.00
2022-08-18T02:55:46.684Z,0.00
2022-08-18T02:56:47.018Z,0.00
2022-08-18T02:57:47.356Z,0.00
2022-08-18T02:58:47.677Z,0.00
2022-08-18T02:59:48.455Z,0.00
2022-08-18T03:00:48.262Z,0.00
2022-08-18T03:01:48.660Z,0.00
2022-08-18T03:02:48.872Z,0.00
2022-08-18T03:03:49.181Z,0.00
2022-08-18T03:04:49.488Z,0.00
2022-08-18T03:05:49.805Z,0.00
2022-08-18T03:06:50.117Z,0.00
2022-08-18T03:07:50.790Z,0.00
2022-08-18T03:08:50.727Z,16.00
2022-08-18T03:09:51.047Z,0.00
2022-08-18T03:10:51.374Z,0.00
2022-08-18T03:11:51.690Z,0.00
2022-08-18T03:12:51.999Z,4.00
2022-08-18T03:13:52.319Z,4.00
2022-08-18T03:14:52.634Z,0.00
2022-08-18T03:15:56.730Z,0.00
2022-08-18T03:16:54.441Z,4.00
2022-08-18T03:17:53.719Z,4.00
2022-08-18T03:18:53.960Z,0.00
2022-08-18T03:19:54.282Z,4.00
2022-08-18T03:20:54.593Z,4.00
2022-08-18T03:21:54.907Z,4.00
2022-08-18T03:22:55.215Z,8.00
2022-08-18T03:24:00.240Z,8.00
2022-08-18T03:24:56.834Z,8.00
2022-08-18T03:25:56.081Z,8.00
2022-08-18T03:26:56.393Z,8.00
2022-08-18T03:27:56.695Z,12.00
2022-08-18T03:28:57.035Z,12.00
2022-08-18T03:29:58.883Z,16.00
2022-08-18T03:30:57.611Z,20.00
2022-08-18T03:31:57.931Z,20.00
2022-08-18T03:32:58.266Z,24.00
2022-08-18T03:33:59.350Z,24.00
2022-08-18T03:34:58.897Z,32.00
2022-08-18T03:35:59.227Z,36.00
2022-08-18T03:36:59.549Z,40.00
2022-08-18T03:37:59.880Z,44.00
2022-08-18T03:39:00.222Z,52.00
2022-08-18T03:40:00.607Z,56.00
2022-08-18T03:41:00.848Z,64.00
2022-08-18T03:42:02.064Z,68.00
2022-08-18T03:43:02.190Z,76.00
2022-08-18T03:44:01.920Z,80.00
2022-08-18T03:45:13.237Z,92.00
2022-08-18T03:46:03.374Z,100.00
2022-08-18T03:47:02.649Z,104.00
2022-08-18T03:48:02.963Z,112.00
2022-08-18T03:49:03.324Z,124.00
2022-08-18T03:50:03.543Z,132.00
2022-08-18T03:51:05.481Z,140.00
2022-08-18T03:52:04.215Z,152.00
2022-08-18T03:53:04.587Z,164.00
2022-08-18T03:54:04.804Z,180.00
2022-08-18T03:55:05.146Z,192.00
2022-08-18T03:56:05.484Z,212.00
2022-08-18T03:57:05.828Z,232.00
2022-08-18T03:58:06.185Z,252.00
2022-08-18T03:59:06.536Z,272.00
2022-08-18T04:00:06.750Z,292.00
2022-08-18T04:01:07.170Z,308.00
2022-08-18T04:02:07.382Z,320.00
2022-08-18T04:03:07.620Z,340.00
2022-08-18T04:04:07.860Z,352.00
2022-08-18T04:05:08.111Z,368.00
2022-08-18T04:06:12.464Z,380.00
2022-08-18T04:07:08.711Z,400.00
2022-08-18T04:08:08.942Z,420.00
2022-08-18T04:09:09.233Z,436.00
2022-08-18T04:10:17.035Z,460.00
2022-08-18T04:11:10.790Z,488.00
2022-08-18T04:12:10.077Z,500.00
2022-08-18T04:13:11.375Z,508.00
2022-08-18T04:14:10.673Z,516.00
2022-08-18T04:15:10.921Z,524.00
2022-08-18T04:16:11.132Z,540.00
2022-08-18T04:17:11.496Z,560.00
2022-08-18T04:18:11.917Z,576.00
2022-08-18T04:19:12.023Z,600.00
2022-08-18T04:20:12.281Z,616.00
2022-08-18T04:21:12.472Z,636.00
2022-08-18T04:22:17.547Z,648.00
2022-08-18T04:23:14.140Z,652.00
2022-08-18T04:24:13.430Z,660.00
2022-08-18T04:25:13.689Z,664.00
2022-08-18T04:26:19.139Z,664.00
2022-08-18T04:27:15.201Z,668.00
2022-08-18T04:28:14.491Z,680.00
2022-08-18T04:29:14.764Z,704.00
2022-08-18T04:30:14.972Z,740.00
2022-08-18T04:31:15.348Z,796.00
2022-08-18T04:32:15.572Z,884.00
2022-08-18T04:33:15.800Z,972.00
2022-08-18T04:34:16.182Z,1020.00
2022-08-18T04:35:16.422Z,1036.00
2022-08-18T04:36:20.495Z,1036.00
2022-08-18T04:37:16.956Z,1052.00
2022-08-18T04:38:17.195Z,1080.00
2022-08-18T04:39:17.472Z,1088.00
2022-08-18T04:40:22.837Z,1100.00
2022-08-18T04:41:19.026Z,1096.00
2022-08-18T04:42:18.335Z,1096.00
2022-08-18T04:43:18.566Z,1116.00
2022-08-18T04:44:18.817Z,1168.00
2022-08-18T04:45:19.057Z,1252.00
2022-08-18T04:46:19.297Z,1352.00
2022-08-18T04:47:19.517Z,1436.00
2022-08-18T04:48:19.757Z,1488.00
2022-08-18T04:49:20.086Z,1516.00
2022-08-18T04:50:20.329Z,1508.00
2022-08-18T04:52:26.847Z,1492.00
2022-08-18T04:52:40.629Z,1472.00
2022-08-18T04:53:22.110Z,1468.00
2022-08-18T04:54:21.431Z,1500.00
2022-08-18T04:55:21.665Z,1544.00
2022-08-18T04:56:21.901Z,1588.00
2022-08-18T04:57:22.131Z,1652.00
2022-08-18T04:58:22.364Z,1712.00
2022-08-18T04:59:22.616Z,1740.00
2022-08-18T05:00:22.852Z,1768.00
2022-08-18T05:01:23.196Z,1776.00
2022-08-18T05:02:24.267Z,1852.00
2022-08-18T05:03:23.634Z,1892.00
2022-08-18T05:04:23.892Z,1980.00
2022-08-18T05:05:24.133Z,2024.00
2022-08-18T05:06:24.375Z,2080.00
2022-08-18T05:07:24.605Z,2148.00
2022-08-18T05:08:24.865Z,2200.00
2022-08-18T05:09:25.107Z,2208.00
2022-08-18T05:10:25.368Z,2208.00
2022-08-18T05:11:25.636Z,2248.00
2022-08-18T05:12:26.625Z,2312.00
2022-08-18T05:13:26.206Z,2368.00
2022-08-18T05:14:26.463Z,2428.00
2022-08-18T05:15:26.698Z,2524.00
2022-08-18T05:16:27.601Z,2632.00
2022-08-18T05:17:27.160Z,2716.00
2022-08-18T05:18:27.421Z,2708.00
2022-08-18T05:19:27.682Z,2744.00
2022-08-18T05:20:27.931Z,2872.00
2022-08-18T05:21:28.154Z,2940.00
2022-08-18T05:22:31.164Z,2896.00
2022-08-18T05:23:28.639Z,3192.00
2022-08-18T05:24:34.058Z,3340.00
2022-08-18T05:25:30.193Z,3500.00
2022-08-18T05:26:29.487Z,3040.00
2022-08-18T05:27:30.538Z,3204.00
2022-08-18T05:28:29.956Z,3224.00
2022-08-18T05:29:30.225Z,3640.00
2022-08-18T05:30:30.465Z,3512.00
2022-08-18T05:31:30.715Z,2964.00
2022-08-18T05:32:46.875Z,3080.00
2022-08-18T05:33:32.307Z,3972.00
2022-08-18T05:34:31.609Z,5516.00
2022-08-18T05:35:31.869Z,6660.00
2022-08-18T05:36:32.146Z,7824.00
2022-08-18T05:37:35.516Z,8880.00
2022-08-18T05:38:32.670Z,9632.00
2022-08-18T05:39:32.970Z,9788.00
2022-08-18T05:40:33.208Z,8568.00
2022-08-18T05:41:33.434Z,8744.00
2022-08-18T05:42:33.684Z,9768.00
2022-08-18T05:43:34.002Z,11072.00
2022-08-18T05:44:34.325Z,10232.00
2022-08-18T05:45:34.574Z,11860.00
2022-08-18T05:46:34.848Z,14272.00
2022-08-18T05:47:35.179Z,16320.00
2022-08-18T05:48:37.624Z,16352.00
2022-08-18T05:49:36.676Z,17568.00
2022-08-18T05:50:35.867Z,18080.00
2022-08-18T05:51:36.136Z,16928.00
2022-08-18T05:52:36.451Z,14656.00
2022-08-18T05:53:36.726Z,9208.00
2022-08-18T05:54:37.020Z,8668.00
2022-08-18T05:55:37.259Z,16032.00
2022-08-18T05:56:37.623Z,18464.00
2022-08-18T05:57:37.893Z,21504.00
2022-08-18T05:58:38.179Z,13920.00
2022-08-18T05:59:38.469Z,10896.00
2022-08-18T06:00:38.743Z,21056.00
2022-08-18T06:01:38.984Z,23552.00
2022-08-18T06:02:39.299Z,21600.00
2022-08-18T06:03:45.127Z,15680.00
2022-08-18T06:04:40.823Z,16864.00
2022-08-18T06:05:40.144Z,13888.00
2022-08-18T06:06:44.128Z,10868.00
2022-08-18T06:07:41.757Z,10216.00
2022-08-18T06:08:41.135Z,10800.00
2022-08-18T06:09:41.417Z,18560.00
2022-08-18T06:10:41.677Z,16384.00
2022-08-18T06:11:41.950Z,18560.00
2022-08-18T06:12:46.660Z,18464.00
2022-08-18T06:13:44.320Z,11900.00
2022-08-18T06:14:42.882Z,9764.00
2022-08-18T06:15:43.504Z,8196.00
2022-08-18T06:16:44.477Z,8816.00
2022-08-18T06:17:43.808Z,6764.00
2022-08-18T06:18:43.931Z,7128.00
2022-08-18T06:19:44.204Z,14048.00
2022-08-18T06:20:44.465Z,8468.00
2022-08-18T06:21:44.702Z,9600.00
2022-08-18T06:22:48.091Z,12116.00
2022-08-18T06:23:46.304Z,17056.00
2022-08-18T06:24:45.627Z,15360.00
2022-08-18T06:25:45.880Z,12504.00
2022-08-18T06:26:46.137Z,11912.00
2022-08-18T06:27:46.458Z,11720.00
2022-08-18T06:28:46.635Z,11836.00
2022-08-18T06:29:46.895Z,11364.00
2022-08-18T06:30:47.145Z,11128.00
2022-08-18T06:31:47.378Z,10724.00
2022-08-18T06:32:47.626Z,10764.00
2022-08-18T06:33:47.881Z,12064.00
2022-08-18T06:34:48.151Z,14912.00
2022-08-18T06:35:48.509Z,9028.00
2022-08-18T06:36:48.632Z,9116.00
2022-08-18T06:37:48.888Z,8260.00
2022-08-18T06:38:49.149Z,7752.00
2022-08-18T06:39:49.429Z,7716.00
2022-08-18T06:40:49.693Z,7608.00
2022-08-18T06:41:49.944Z,7756.00
2022-08-18T06:42:50.175Z,7652.00
2022-08-18T06:43:50.423Z,6808.00
2022-08-18T06:44:50.666Z,6812.00
2022-08-18T06:45:50.908Z,7108.00
2022-08-18T06:46:53.551Z,7152.00
2022-08-18T06:47:51.559Z,7016.00
2022-08-18T06:48:51.765Z,6732.00
2022-08-18T06:49:51.990Z,6472.00
2022-08-18T06:50:52.229Z,6404.00
2022-08-18T06:51:52.466Z,6528.00
2022-08-18T06:52:52.690Z,6668.00
2022-08-18T06:53:52.939Z,6760.00
2022-08-18T06:54:53.165Z,6860.00
2022-08-18T06:55:53.382Z,7000.00
2022-08-18T06:56:53.741Z,7196.00
2022-08-18T06:57:54.057Z,7344.00
2022-08-18T06:58:54.300Z,7248.00
2022-08-18T06:59:54.523Z,7048.00
2022-08-18T07:00:56.358Z,6988.00
2022-08-18T07:01:55.106Z,6936.00
2022-08-18T07:02:55.338Z,6980.00
2022-08-18T07:03:55.578Z,7088.00
2022-08-18T07:04:55.809Z,6988.00
2022-08-18T07:05:56.040Z,6736.00
2022-08-18T07:06:56.276Z,6576.00
2022-08-18T07:07:56.998Z,6588.00
2022-08-18T07:08:56.806Z,6420.00
2022-08-18T07:09:57.036Z,6032.00
2022-08-18T07:10:57.419Z,5940.00
2022-08-18T07:11:57.657Z,5916.00
2022-08-18T07:12:57.898Z,5944.00
2022-08-18T07:14:15.450Z,6084.00
2022-08-18T07:14:59.451Z,6248.00
2022-08-18T07:15:58.730Z,6476.00
2022-08-18T07:16:59.946Z,6768.00
2022-08-18T07:17:59.244Z,7064.00
2022-08-18T07:18:59.500Z,7324.00
2022-08-18T07:19:59.721Z,7648.00
2022-08-18T07:20:59.963Z,7928.00
2022-08-18T07:22:00.182Z,8036.00
2022-08-18T07:23:00.420Z,8208.00
2022-08-18T07:24:23.126Z,8296.00
2022-08-18T07:25:05.272Z,8404.00
2022-08-18T07:26:01.315Z,8500.00
2022-08-18T07:27:01.551Z,8544.00
2022-08-18T07:28:01.777Z,8600.00
2022-08-18T07:29:02.020Z,8576.00
2022-08-18T07:30:02.248Z,8504.00
2022-08-18T07:31:16.307Z,8404.00
2022-08-18T07:32:03.799Z,8340.00
2022-08-18T07:33:03.088Z,8244.00
2022-08-18T07:34:03.339Z,8088.00
2022-08-18T07:35:03.573Z,7948.00
2022-08-18T07:36:03.790Z,7820.00
2022-08-18T07:37:04.152Z,7700.00
2022-08-18T07:38:24.659Z,7548.00
2022-08-18T07:39:05.822Z,7404.00
2022-08-18T07:40:05.019Z,7252.00
2022-08-18T07:41:05.273Z,7104.00
2022-08-18T07:42:05.504Z,7008.00
2022-08-18T07:43:05.734Z,6956.00
2022-08-18T07:44:09.855Z,6948.00
2022-08-18T07:45:07.286Z,6944.00
2022-08-18T07:46:06.575Z,6940.00
2022-08-18T07:47:06.810Z,6944.00
2022-08-18T07:48:27.288Z,6984.00
2022-08-18T07:49:08.356Z,7060.00
2022-08-18T07:50:27.300Z,7180.00
2022-08-18T07:51:09.166Z,7304.00
2022-08-18T07:52:36.076Z,7412.00
2022-08-18T07:53:09.628Z,7512.00
2022-08-18T07:54:16.529Z,7604.00
2022-08-18T07:55:10.164Z,7692.00
2022-08-18T07:56:09.477Z,7764.00
2022-08-18T07:57:09.739Z,7844.00
2022-08-18T07:58:09.990Z,7924.00
2022-08-18T07:59:10.285Z,7996.00
2022-08-18T08:00:17.447Z,8072.00
2022-08-18T08:01:11.762Z,8128.00
2022-08-18T08:02:11.135Z,8156.00
2022-08-18T08:03:11.436Z,8156.00
2022-08-18T08:04:25.454Z,8140.00
2022-08-18T08:05:13.118Z,8116.00
2022-08-18T08:06:12.265Z,8072.00
2022-08-18T08:07:27.963Z,8024.00
2022-08-18T08:08:13.869Z,7976.00
2022-08-18T08:09:13.208Z,7944.00
2022-08-18T08:10:13.481Z,7932.00
2022-08-18T08:11:13.738Z,7924.00
2022-08-18T08:12:14.010Z,7908.00
2022-08-18T08:13:16.982Z,7888.00
2022-08-18T08:14:16.222Z,7880.00
2022-08-18T08:15:14.861Z,7856.00
2022-08-18T08:16:15.129Z,7840.00
2022-08-18T08:17:15.400Z,7824.00
2022-08-18T08:18:16.417Z,7824.00
2022-08-18T08:19:16.014Z,7852.00
2022-08-18T08:20:17.071Z,7908.00
2022-08-18T08:21:16.504Z,7972.00
2022-08-18T08:22:16.775Z,8032.00
2022-08-18T08:23:17.037Z,8084.00
2022-08-18T08:24:17.356Z,8136.00
2022-08-18T08:25:42.938Z,8224.00
2022-08-18T08:26:18.803Z,8312.00
2022-08-18T08:27:18.907Z,8388.00
2022-08-18T08:28:18.370Z,8448.00
2022-08-18T08:29:18.666Z,8484.00
2022-08-18T08:30:18.959Z,8504.00
2022-08-18T08:31:36.143Z,8504.00
2022-08-18T08:32:20.523Z,8508.00
2022-08-18T08:33:19.711Z,8508.00
2022-08-18T08:34:20.039Z,8492.00
2022-08-18T08:35:48.660Z,8464.00
2022-08-18T08:36:21.661Z,8432.00
2022-08-18T08:37:20.990Z,8408.00
2022-08-18T08:38:40.068Z,8396.00
2022-08-18T08:39:22.602Z,8404.00
2022-08-18T08:40:22.056Z,8408.00
2022-08-18T08:41:22.156Z,8400.00
2022-08-18T08:42:31.954Z,8376.00
2022-08-18T08:43:23.644Z,8360.00
2022-08-18T08:44:22.986Z,8344.00
2022-08-18T08:45:23.261Z,8320.00
2022-08-18T08:46:23.528Z,8296.00
2022-08-18T08:47:23.795Z,8292.00
2022-08-18T08:48:24.069Z,8316.00
2022-08-18T08:49:24.346Z,8368.00
2022-08-18T08:50:24.637Z,8436.00
2022-08-18T08:51:24.903Z,8500.00
2022-08-18T08:52:26.238Z,8564.00
2022-08-18T08:53:25.580Z,8624.00
2022-08-18T08:54:25.854Z,8684.00
2022-08-18T08:55:26.121Z,8736.00
2022-08-18T08:56:26.402Z,8800.00
2022-08-18T08:57:26.653Z,8884.00
2022-08-18T08:58:26.952Z,8936.00
2022-08-18T08:59:27.193Z,8984.00
2022-08-18T09:00:27.464Z,9028.00
2022-08-18T09:01:27.775Z,9076.00
2022-08-18T09:03:30.192Z,9156.00
2022-08-18T09:04:28.596Z,9192.00
2022-08-18T09:05:28.870Z,9216.00
2022-08-18T09:06:29.138Z,9220.00
2022-08-18T09:08:35.101Z,9216.00
2022-08-18T09:09:35.142Z,9224.00
2022-08-18T09:10:35.404Z,9256.00
2022-08-18T09:11:35.646Z,9296.00
2022-08-18T09:12:35.917Z,9332.00
2022-08-18T09:13:36.204Z,9360.00
2022-08-18T09:14:36.394Z,9392.00
2022-08-18T09:15:36.639Z,9416.00
2022-08-18T09:16:36.884Z,9420.00
2022-08-18T09:17:37.149Z,9412.00
2022-08-18T09:18:37.416Z,9400.00
2022-08-18T09:19:37.676Z,9388.00
2022-08-18T09:20:37.909Z,9384.00
2022-08-18T09:21:38.169Z,9420.00
2022-08-18T09:22:38.410Z,9480.00
2022-08-18T09:23:38.669Z,9540.00
2022-08-18T09:24:39.076Z,9584.00
2022-08-18T09:25:39.376Z,9620.00
2022-08-18T09:26:39.509Z,9652.00
2022-08-18T09:28:00.102Z,9692.00
2022-08-18T09:28:41.105Z,9744.00
2022-08-18T09:29:44.172Z,9808.00
2022-08-18T09:30:40.732Z,9876.00
2022-08-18T09:31:41.044Z,9948.00
2022-08-18T09:32:41.276Z,10000.00
2022-08-18T09:33:41.937Z,10072.00
2022-08-18T09:34:41.854Z,10116.00
2022-08-18T09:35:42.137Z,10164.00
2022-08-18T09:36:42.490Z,10212.00
2022-08-18T09:37:42.796Z,10280.00
2022-08-18T09:38:43.087Z,10356.00
2022-08-18T09:39:43.478Z,10440.00
2022-08-18T09:41:45.008Z,10596.00
2022-08-18T09:42:49.700Z,10660.00
2022-08-18T09:43:45.622Z,10732.00
2022-08-18T09:44:44.926Z,10748.00
2022-08-18T09:45:45.235Z,10780.00
2022-08-18T09:46:45.568Z,10784.00
2022-08-18T09:47:48.014Z,10752.00
2022-08-18T09:48:46.902Z,10740.00
2022-08-18T09:49:47.951Z,10728.00
2022-08-18T09:50:47.572Z,10740.00
2022-08-18T09:51:47.103Z,10760.00
2022-08-18T09:52:47.352Z,10752.00
2022-08-18T09:53:48.334Z,10744.00
2022-08-18T09:54:48.187Z,10756.00
2022-08-18T09:56:54.421Z,10700.00
2022-08-18T09:57:51.691Z,10636.00
2022-08-18T09:58:50.007Z,10552.00
2022-08-18T09:59:49.327Z,10464.00
2022-08-18T10:00:49.697Z,10380.00
2022-08-18T10:01:52.604Z,10308.00
2022-08-18T10:02:50.239Z,10248.00
2022-08-18T10:03:50.530Z,10220.00
2022-08-18T10:04:51.631Z,10196.00
2022-08-18T10:05:51.078Z,10188.00
2022-08-18T10:06:51.747Z,10188.00
2022-08-18T10:07:51.660Z,10208.00
2022-08-18T10:08:51.937Z,10228.00
2022-08-18T10:09:52.194Z,10248.00
2022-08-18T10:11:53.873Z,10332.00
2022-08-18T10:12:53.505Z,10380.00
2022-08-18T10:13:53.474Z,10452.00
2022-08-18T10:14:53.716Z,10536.00
2022-08-18T10:15:53.980Z,10608.00
2022-08-18T10:17:55.578Z,10764.00
2022-08-18T10:18:54.941Z,10836.00
2022-08-18T10:19:55.175Z,10864.00
2022-08-18T10:20:55.418Z,10912.00
2022-08-18T10:21:55.701Z,10920.00
2022-08-18T10:22:55.999Z,10912.00
2022-08-18T10:24:14.720Z,10888.00
2022-08-18T10:24:57.617Z,10880.00
2022-08-18T10:25:59.281Z,10860.00
2022-08-18T10:26:58.174Z,10856.00
2022-08-18T10:27:57.486Z,10800.00
2022-08-18T10:28:57.732Z,10724.00
2022-08-18T10:29:58.047Z,10680.00
2022-08-18T10:31:06.179Z,10632.00
2022-08-18T10:31:59.619Z,10500.00
2022-08-18T10:32:59.392Z,10440.00
2022-08-18T10:33:59.193Z,10432.00
2022-08-18T10:34:59.457Z,10444.00
2022-08-18T10:35:59.708Z,10436.00
2022-08-18T10:37:00.010Z,10424.00
2022-08-18T10:38:00.296Z,10376.00
2022-08-18T10:39:00.537Z,10304.00
2022-08-18T10:40:00.827Z,10288.00
2022-08-18T10:41:04.803Z,10264.00
2022-08-18T10:42:02.368Z,10260.00
2022-08-18T10:43:01.681Z,10284.00
2022-08-18T10:44:07.338Z,10240.00
2022-08-18T10:45:03.289Z,10204.00
2022-08-18T10:46:27.734Z,10140.00
2022-08-18T10:47:03.890Z,10036.00
2022-08-18T10:48:04.092Z,9896.00
2022-08-18T10:49:04.488Z,9744.00
2022-08-18T10:50:03.718Z,9604.00
2022-08-18T10:51:04.539Z,9444.00
2022-08-18T10:52:04.315Z,9296.00
2022-08-18T10:53:24.723Z,9200.00
2022-08-18T10:54:05.800Z,9148.00
2022-08-18T10:55:06.263Z,9108.00
2022-08-18T10:56:06.410Z,9084.00
2022-08-18T10:57:05.680Z,9088.00
2022-08-18T10:58:05.933Z,9108.00
2022-08-18T10:59:06.190Z,9120.00
2022-08-18T11:00:07.541Z,9116.00
2022-08-18T11:01:06.832Z,9080.00
2022-08-18T11:02:07.093Z,9080.00
2022-08-18T11:04:14.018Z,9028.00
2022-08-18T11:05:08.991Z,8992.00
2022-08-18T11:06:14.532Z,8952.00
2022-08-18T11:07:09.534Z,8876.00
2022-08-18T11:08:15.746Z,8788.00
2022-08-18T11:09:10.104Z,8712.00
2022-08-18T11:12:10.986Z,8396.00
2022-08-18T11:13:10.442Z,8272.00
2022-08-18T11:14:10.547Z,8148.00
2022-08-18T11:15:23.011Z,8036.00
2022-08-18T11:16:13.422Z,7860.00
2022-08-18T11:17:11.432Z,7728.00
2022-08-18T11:18:11.682Z,7624.00
2022-08-18T11:19:11.941Z,7476.00
2022-08-18T11:20:12.219Z,7260.00
2022-08-18T11:21:13.668Z,6980.00
2022-08-18T11:22:12.782Z,6632.00
2022-08-18T11:23:14.145Z,6408.00
2022-08-18T11:24:13.570Z,6164.00
2022-08-18T11:25:13.624Z,5888.00
2022-08-18T11:26:13.874Z,5704.00
2022-08-18T11:27:15.590Z,5548.00
2022-08-18T11:28:14.534Z,5456.00
2022-08-18T11:29:14.783Z,5396.00
2022-08-18T11:30:15.033Z,5316.00
2022-08-18T11:31:15.383Z,5212.00
2022-08-18T11:32:15.935Z,5048.00
2022-08-18T11:33:15.853Z,5024.00
2022-08-18T11:34:19.744Z,4968.00
2022-08-18T11:35:16.539Z,4896.00
2022-08-18T11:36:16.690Z,4884.00
2022-08-18T11:37:17.798Z,5088.00
2022-08-18T11:38:23.095Z,5068.00
2022-08-18T11:39:18.570Z,5100.00
2022-08-18T11:40:51.809Z,5132.00
2022-08-18T11:41:19.317Z,5132.00
2022-08-18T11:42:25.114Z,5188.00
2022-08-18T11:43:21.322Z,5288.00
2022-08-18T11:44:19.070Z,5352.00
2022-08-18T11:45:19.791Z,5288.00
2022-08-18T11:46:19.682Z,5292.00
2022-08-18T11:47:27.550Z,5096.00
2022-08-18T11:48:25.155Z,4936.00
2022-08-18T11:50:21.693Z,4980.00
2022-08-18T11:52:29.171Z,4968.00
2022-08-18T11:53:24.092Z,4980.00
2022-08-18T11:54:23.570Z,4992.00
2022-08-18T11:56:30.560Z,5204.00
2022-08-18T11:57:24.036Z,5516.00
2022-08-18T11:58:23.178Z,5736.00
2022-08-18T11:59:24.393Z,5960.00
2022-08-18T12:00:24.647Z,6144.00
2022-08-18T12:01:23.948Z,6388.00
2022-08-18T12:02:24.212Z,6620.00
2022-08-18T12:03:24.516Z,6840.00
2022-08-18T12:04:24.741Z,7024.00
2022-08-18T12:05:25.032Z,7120.00
2022-08-18T12:06:27.126Z,7348.00
2022-08-18T12:07:25.615Z,7712.00
2022-08-18T12:08:54.514Z,7796.00
2022-08-18T12:10:29.032Z,7648.00
2022-08-18T12:11:27.913Z,7528.00
2022-08-18T12:12:28.180Z,7312.00
2022-08-18T12:13:27.285Z,7168.00
2022-08-18T12:14:32.541Z,6876.00
2022-08-18T12:15:29.653Z,6616.00
2022-08-18T12:16:29.100Z,6368.00
2022-08-18T12:17:28.420Z,6112.00
2022-08-18T12:18:29.958Z,5964.00
2022-08-18T12:19:28.921Z,5768.00
2022-08-18T12:20:29.192Z,5596.00
2022-08-18T12:21:29.442Z,5352.00
2022-08-18T12:22:29.703Z,5248.00
2022-08-18T12:23:38.315Z,5040.00
2022-08-18T12:24:36.893Z,4960.00
2022-08-18T12:25:31.504Z,4844.00
2022-08-18T12:26:43.241Z,4780.00
2022-08-18T12:27:32.330Z,4744.00
2022-08-18T12:28:31.464Z,4776.00
2022-08-18T12:29:36.673Z,4824.00
2022-08-18T12:30:33.270Z,4868.00
2022-08-18T12:31:47.552Z,4928.00
2022-08-18T12:32:50.875Z,5020.00
2022-08-18T12:33:34.472Z,5144.00
2022-08-18T12:34:34.132Z,5340.00
2022-08-18T12:35:33.431Z,5476.00
2022-08-18T12:36:33.721Z,5612.00
2022-08-18T12:37:58.264Z,5692.00
2022-08-18T12:38:36.337Z,5756.00
2022-08-18T12:39:34.570Z,5808.00
2022-08-18T12:40:34.871Z,5844.00